sensor_id;sensor_type;location;lat;lon;timestamp;temperature;humidity
5055;DHT22;13829;48.990;8.346;2023-02-15T00:01:34;2.00;99.90
5055;DHT22;13829;48.990;8.346;2023-02-15T00:04:03;2.00;99.90
5055;DHT22;13829;48.990;8.346;2023-02-15T00:06:31;1.90;99.90
5055;DHT22;13829;48.990;8.346;2023-02-15T00:08:59;1.90;99.90
5055;DHT22;13829;48.990;8.346;2023-02-15T00:11:27;1.90;99.90
5055;DHT22;13829;48.990;8.346;2023-02-15T00:14:07;1.90;99.90
5055;DHT22;13829;48.990;8.346;2023-02-15T00:16:36;2.00;99.90
5055;DHT22;13829;48.990;8.346;2023-02-15T00:19:04;2.10;99.90
5055;DHT22;13829;48.990;8.346;2023-02-15T00:21:32;2.10;99.90
5055;DHT22;13829;48.990;8.346;2023-02-15T00:24:04;2.20;99.90
5055;DHT22;13829;48.990;8.346;2023-02-15T00:26:34;2.50;99.90
5055;DHT22;13829;48.990;8.346;2023-02-15T00:29:01;2.70;99.90
5055;DHT22;13829;48.990;8.346;2023-02-15T00:31:29;2.80;99.90
5055;DHT22;13829;48.990;8.346;2023-02-15T00:34:01;2.80;99.90
5055;DHT22;13829;48.990;8.346;2023-02-15T00:36:28;3.00;99.90
5055;DHT22;13829;48.990;8.346;2023-02-15T00:38:56;2.80;99.90
5055;DHT22;13829;48.990;8.346;2023-02-15T00:41:24;2.80;99.90
5055;DHT22;13829;48.990;8.346;2023-02-15T00:43:51;2.90;99.90
5055;DHT22;13829;48.990;8.346;2023-02-15T00:46:18;3.00;99.90
5055;DHT22;13829;48.990;8.346;2023-02-15T00:48:45;2.90;99.90
5055;DHT22;13829;48.990;8.346;2023-02-15T00:51:12;2.90;99.90
5055;DHT22;13829;48.990;8.346;2023-02-15T00:53:39;2.80;99.90
5055;DHT22;13829;48.990;8.346;2023-02-15T00:56:06;2.80;99.90
5055;DHT22;13829;48.990;8.346;2023-02-15T00:58:35;2.90;99.90
5055;DHT22;13829;48.990;8.346;2023-02-15T01:01:04;2.90;99.90
5055;DHT22;13829;48.990;8.346;2023-02-15T01:03:33;2.90;99.90
5055;DHT22;13829;48.990;8.346;2023-02-15T01:06:01;2.80;99.90
5055;DHT22;13829;48.990;8.346;2023-02-15T01:08:29;2.70;99.90
5055;DHT22;13829;48.990;8.346;2023-02-15T01:10:57;2.90;99.90
5055;DHT22;13829;48.990;8.346;2023-02-15T01:13:29;3.00;99.90
5055;DHT22;13829;48.990;8.346;2023-02-15T01:15:58;3.00;99.90
5055;DHT22;13829;48.990;8.346;2023-02-15T01:18:25;2.90;99.90
5055;DHT22;13829;48.990;8.346;2023-02-15T01:20:53;2.90;99.90
5055;DHT22;13829;48.990;8.346;2023-02-15T01:23:20;2.80;99.90
5055;DHT22;13829;48.990;8.346;2023-02-15T01:25:47;2.80;99.90
5055;DHT22;13829;48.990;8.346;2023-02-15T01:28:14;2.90;99.90
5055;DHT22;13829;48.990;8.346;2023-02-15T01:30:41;3.10;99.90
5055;DHT22;13829;48.990;8.346;2023-02-15T01:33:10;3.10;99.90
5055;DHT22;13829;48.990;8.346;2023-02-15T01:35:43;3.20;99.90
5055;DHT22;13829;48.990;8.346;2023-02-15T01:38:11;3.10;99.90
5055;DHT22;13829;48.990;8.346;2023-02-15T01:40:38;2.90;99.90
5055;DHT22;13829;48.990;8.346;2023-02-15T01:43:10;2.80;99.90
5055;DHT22;13829;48.990;8.346;2023-02-15T01:45:38;2.80;99.90
5055;DHT22;13829;48.990;8.346;2023-02-15T01:48:17;2.90;99.90
5055;DHT22;13829;48.990;8.346;2023-02-15T01:50:49;3.00;99.90
5055;DHT22;13829;48.990;8.346;2023-02-15T01:53:23;3.10;99.90
5055;DHT22;13829;48.990;8.346;2023-02-15T01:55:57;3.10;99.90
5055;DHT22;13829;48.990;8.346;2023-02-15T01:58:28;3.10;99.90
5055;DHT22;13829;48.990;8.346;2023-02-15T02:00:58;3.00;99.90
5055;DHT22;13829;48.990;8.346;2023-02-15T02:03:35;2.90;99.90
5055;DHT22;13829;48.990;8.346;2023-02-15T02:06:09;2.90;99.90
5055;DHT22;13829;48.990;8.346;2023-02-15T02:08:36;2.90;99.90
5055;DHT22;13829;48.990;8.346;2023-02-15T02:11:09;3.00;99.90
5055;DHT22;13829;48.990;8.346;2023-02-15T02:13:37;3.00;99.90
5055;DHT22;13829;48.990;8.346;2023-02-15T02:16:10;2.90;99.90
5055;DHT22;13829;48.990;8.346;2023-02-15T02:18:58;2.80;99.90
5055;DHT22;13829;48.990;8.346;2023-02-15T02:21:59;2.70;99.90
5055;DHT22;13829;48.990;8.346;2023-02-15T02:25:17;2.80;99.90
5055;DHT22;13829;48.990;8.346;2023-02-15T02:28:17;2.60;99.90
5055;DHT22;13829;48.990;8.346;2023-02-15T02:31:13;2.60;99.90
5055;DHT22;13829;48.990;8.346;2023-02-15T02:34:01;2.70;99.90
5055;DHT22;13829;48.990;8.346;2023-02-15T02:36:36;2.80;99.90
5055;DHT22;13829;48.990;8.346;2023-02-15T02:39:23;3.00;99.90
5055;DHT22;13829;48.990;8.346;2023-02-15T02:42:01;3.00;99.90
5055;DHT22;13829;48.990;8.346;2023-02-15T02:44:41;2.90;99.90
5055;DHT22;13829;48.990;8.346;2023-02-15T02:47:13;3.00;99.90
5055;DHT22;13829;48.990;8.346;2023-02-15T02:49:46;3.20;99.90
5055;DHT22;13829;48.990;8.346;2023-02-15T02:52:36;3.20;99.90
5055;DHT22;13829;48.990;8.346;2023-02-15T02:55:08;3.20;99.90
5055;DHT22;13829;48.990;8.346;2023-02-15T02:57:43;3.20;99.90
5055;DHT22;13829;48.990;8.346;2023-02-15T03:00:20;3.20;99.90
5055;DHT22;13829;48.990;8.346;2023-02-15T03:02:50;3.20;99.90
5055;DHT22;13829;48.990;8.346;2023-02-15T03:05:27;3.20;99.90
5055;DHT22;13829;48.990;8.346;2023-02-15T03:07:56;3.20;99.90
5055;DHT22;13829;48.990;8.346;2023-02-15T03:10:32;3.20;99.90
5055;DHT22;13829;48.990;8.346;2023-02-15T03:13:02;3.20;99.90
5055;DHT22;13829;48.990;8.346;2023-02-15T03:15:34;3.20;99.90
5055;DHT22;13829;48.990;8.346;2023-02-15T03:18:25;3.10;99.90
5055;DHT22;13829;48.990;8.346;2023-02-15T03:21:00;3.10;99.90
5055;DHT22;13829;48.990;8.346;2023-02-15T03:23:30;3.10;99.90
5055;DHT22;13829;48.990;8.346;2023-02-15T03:26:01;3.00;99.90
5055;DHT22;13829;48.990;8.346;2023-02-15T03:28:35;2.90;99.90
5055;DHT22;13829;48.990;8.346;2023-02-15T03:31:06;2.90;99.90
5055;DHT22;13829;48.990;8.346;2023-02-15T03:33:40;2.90;99.90
5055;DHT22;13829;48.990;8.346;2023-02-15T03:36:18;2.90;99.90
5055;DHT22;13829;48.990;8.346;2023-02-15T03:38:55;2.90;99.90
5055;DHT22;13829;48.990;8.346;2023-02-15T03:41:29;3.00;99.90
5055;DHT22;13829;48.990;8.346;2023-02-15T03:44:04;3.00;99.90
5055;DHT22;13829;48.990;8.346;2023-02-15T03:46:43;3.00;99.90
5055;DHT22;13829;48.990;8.346;2023-02-15T03:49:17;3.00;99.90
5055;DHT22;13829;48.990;8.346;2023-02-15T03:51:52;3.00;99.90
5055;DHT22;13829;48.990;8.346;2023-02-15T03:54:24;3.00;99.90
5055;DHT22;13829;48.990;8.346;2023-02-15T03:57:12;3.00;99.90
5055;DHT22;13829;48.990;8.346;2023-02-15T03:59:59;3.00;99.90
5055;DHT22;13829;48.990;8.346;2023-02-15T04:03:14;3.00;99.90
5055;DHT22;13829;48.990;8.346;2023-02-15T04:05:50;3.10;99.90
5055;DHT22;13829;48.990;8.346;2023-02-15T04:08:18;3.00;99.90
5055;DHT22;13829;48.990;8.346;2023-02-15T04:10:45;3.00;99.90
5055;DHT22;13829;48.990;8.346;2023-02-15T04:13:22;3.00;99.90
5055;DHT22;13829;48.990;8.346;2023-02-15T04:15:51;2.90;99.90
5055;DHT22;13829;48.990;8.346;2023-02-15T04:18:28;2.90;99.90
5055;DHT22;13829;48.990;8.346;2023-02-15T04:21:13;2.90;99.90
5055;DHT22;13829;48.990;8.346;2023-02-15T04:23:59;2.90;99.90
5055;DHT22;13829;48.990;8.346;2023-02-15T04:26:44;3.00;99.90
5055;DHT22;13829;48.990;8.346;2023-02-15T04:29:13;3.10;99.90
5055;DHT22;13829;48.990;8.346;2023-02-15T04:31:40;3.10;99.90
5055;DHT22;13829;48.990;8.346;2023-02-15T04:34:08;3.00;99.90
5055;DHT22;13829;48.990;8.346;2023-02-15T04:36:35;3.00;99.90
5055;DHT22;13829;48.990;8.346;2023-02-15T04:39:03;3.10;99.90
5055;DHT22;13829;48.990;8.346;2023-02-15T04:41:31;3.10;99.90
5055;DHT22;13829;48.990;8.346;2023-02-15T04:43:58;3.10;99.90
5055;DHT22;13829;48.990;8.346;2023-02-15T04:46:26;3.00;99.90
5055;DHT22;13829;48.990;8.346;2023-02-15T04:48:53;2.90;99.90
5055;DHT22;13829;48.990;8.346;2023-02-15T04:51:21;2.90;99.90
5055;DHT22;13829;48.990;8.346;2023-02-15T04:53:48;2.90;99.90
5055;DHT22;13829;48.990;8.346;2023-02-15T04:56:16;3.00;99.90
5055;DHT22;13829;48.990;8.346;2023-02-15T04:58:43;2.90;99.90
5055;DHT22;13829;48.990;8.346;2023-02-15T05:01:10;2.90;99.90
5055;DHT22;13829;48.990;8.346;2023-02-15T05:03:37;3.00;99.90
5055;DHT22;13829;48.990;8.346;2023-02-15T05:06:05;3.00;99.90
5055;DHT22;13829;48.990;8.346;2023-02-15T05:08:32;2.90;99.90
5055;DHT22;13829;48.990;8.346;2023-02-15T05:10:58;3.00;99.90
5055;DHT22;13829;48.990;8.346;2023-02-15T05:13:27;2.90;99.90
5055;DHT22;13829;48.990;8.346;2023-02-15T05:15:54;2.90;99.90
5055;DHT22;13829;48.990;8.346;2023-02-15T05:18:21;2.80;99.90
5055;DHT22;13829;48.990;8.346;2023-02-15T05:20:48;2.80;99.90
5055;DHT22;13829;48.990;8.346;2023-02-15T05:23:16;2.80;99.90
5055;DHT22;13829;48.990;8.346;2023-02-15T05:25:46;2.90;99.90
5055;DHT22;13829;48.990;8.346;2023-02-15T05:28:44;3.00;99.90
5055;DHT22;13829;48.990;8.346;2023-02-15T05:31:13;3.00;99.90
5055;DHT22;13829;48.990;8.346;2023-02-15T05:33:42;2.90;99.90
5055;DHT22;13829;48.990;8.346;2023-02-15T05:36:09;2.80;99.90
5055;DHT22;13829;48.990;8.346;2023-02-15T05:38:38;2.80;99.90
5055;DHT22;13829;48.990;8.346;2023-02-15T05:41:05;2.80;99.90
5055;DHT22;13829;48.990;8.346;2023-02-15T05:43:33;2.90;99.90
5055;DHT22;13829;48.990;8.346;2023-02-15T05:46:02;2.90;99.90
5055;DHT22;13829;48.990;8.346;2023-02-15T05:48:31;2.90;99.90
5055;DHT22;13829;48.990;8.346;2023-02-15T05:50:59;2.80;99.90
5055;DHT22;13829;48.990;8.346;2023-02-15T05:53:29;2.80;99.90
5055;DHT22;13829;48.990;8.346;2023-02-15T05:55:58;2.80;99.90
5055;DHT22;13829;48.990;8.346;2023-02-15T05:58:26;2.80;99.90
5055;DHT22;13829;48.990;8.346;2023-02-15T06:00:53;2.80;99.90
5055;DHT22;13829;48.990;8.346;2023-02-15T06:03:22;2.80;99.90
5055;DHT22;13829;48.990;8.346;2023-02-15T06:05:51;2.90;99.90
5055;DHT22;13829;48.990;8.346;2023-02-15T06:08:19;2.90;99.90
5055;DHT22;13829;48.990;8.346;2023-02-15T06:10:46;2.80;99.90
5055;DHT22;13829;48.990;8.346;2023-02-15T06:13:13;2.70;99.90
5055;DHT22;13829;48.990;8.346;2023-02-15T06:15:40;2.70;99.90
5055;DHT22;13829;48.990;8.346;2023-02-15T06:18:07;2.70;99.90
5055;DHT22;13829;48.990;8.346;2023-02-15T06:20:35;2.70;99.90
5055;DHT22;13829;48.990;8.346;2023-02-15T06:23:02;2.60;99.90
5055;DHT22;13829;48.990;8.346;2023-02-15T06:25:29;2.70;99.90
5055;DHT22;13829;48.990;8.346;2023-02-15T06:27:56;2.70;99.90
5055;DHT22;13829;48.990;8.346;2023-02-15T06:30:23;2.60;99.90
5055;DHT22;13829;48.990;8.346;2023-02-15T06:32:50;2.60;99.90
5055;DHT22;13829;48.990;8.346;2023-02-15T06:35:17;2.60;99.90
5055;DHT22;13829;48.990;8.346;2023-02-15T06:37:46;2.70;99.90
5055;DHT22;13829;48.990;8.346;2023-02-15T06:40:14;2.60;99.90
5055;DHT22;13829;48.990;8.346;2023-02-15T06:42:41;2.60;99.90
5055;DHT22;13829;48.990;8.346;2023-02-15T06:45:10;2.50;99.90
5055;DHT22;13829;48.990;8.346;2023-02-15T06:47:37;2.50;99.90
5055;DHT22;13829;48.990;8.346;2023-02-15T06:50:06;2.50;99.90
5055;DHT22;13829;48.990;8.346;2023-02-15T06:52:34;2.50;99.90
5055;DHT22;13829;48.990;8.346;2023-02-15T06:55:02;2.50;99.90
5055;DHT22;13829;48.990;8.346;2023-02-15T06:57:30;2.60;99.90
5055;DHT22;13829;48.990;8.346;2023-02-15T06:59:57;2.70;99.90
5055;DHT22;13829;48.990;8.346;2023-02-15T07:02:25;2.60;99.90
5055;DHT22;13829;48.990;8.346;2023-02-15T07:04:52;2.60;99.90
5055;DHT22;13829;48.990;8.346;2023-02-15T07:07:19;2.50;99.90
5055;DHT22;13829;48.990;8.346;2023-02-15T07:09:46;2.50;99.90
5055;DHT22;13829;48.990;8.346;2023-02-15T07:12:14;2.50;99.90
5055;DHT22;13829;48.990;8.346;2023-02-15T07:14:59;2.60;99.90
5055;DHT22;13829;48.990;8.346;2023-02-15T07:17:25;2.60;99.90
5055;DHT22;13829;48.990;8.346;2023-02-15T07:19:53;2.70;99.90
5055;DHT22;13829;48.990;8.346;2023-02-15T07:22:20;2.70;99.90
5055;DHT22;13829;48.990;8.346;2023-02-15T07:24:47;2.70;99.90
5055;DHT22;13829;48.990;8.346;2023-02-15T07:27:16;2.70;99.90
5055;DHT22;13829;48.990;8.346;2023-02-15T07:29:43;2.70;99.90
5055;DHT22;13829;48.990;8.346;2023-02-15T07:32:10;2.70;99.90
5055;DHT22;13829;48.990;8.346;2023-02-15T07:34:37;2.70;99.90
5055;DHT22;13829;48.990;8.346;2023-02-15T07:37:03;2.90;99.90
5055;DHT22;13829;48.990;8.346;2023-02-15T07:39:30;2.80;99.90
5055;DHT22;13829;48.990;8.346;2023-02-15T07:41:59;2.80;99.90
5055;DHT22;13829;48.990;8.346;2023-02-15T07:44:27;2.80;99.90
5055;DHT22;13829;48.990;8.346;2023-02-15T07:46:54;2.70;99.90
5055;DHT22;13829;48.990;8.346;2023-02-15T07:49:21;2.70;99.90
5055;DHT22;13829;48.990;8.346;2023-02-15T07:51:48;2.60;99.90
5055;DHT22;13829;48.990;8.346;2023-02-15T07:54:15;2.60;99.90
5055;DHT22;13829;48.990;8.346;2023-02-15T07:56:42;2.60;99.90
5055;DHT22;13829;48.990;8.346;2023-02-15T07:59:09;2.60;99.90
5055;DHT22;13829;48.990;8.346;2023-02-15T08:01:38;2.60;99.90
5055;DHT22;13829;48.990;8.346;2023-02-15T08:04:07;2.70;99.90
5055;DHT22;13829;48.990;8.346;2023-02-15T08:06:37;2.80;99.90
5055;DHT22;13829;48.990;8.346;2023-02-15T08:09:06;2.80;99.90
5055;DHT22;13829;48.990;8.346;2023-02-15T08:11:36;2.90;99.90
5055;DHT22;13829;48.990;8.346;2023-02-15T08:14:06;2.90;99.90
5055;DHT22;13829;48.990;8.346;2023-02-15T08:16:37;2.80;99.90
5055;DHT22;13829;48.990;8.346;2023-02-15T08:19:07;2.70;99.90
5055;DHT22;13829;48.990;8.346;2023-02-15T08:21:37;2.80;99.90
5055;DHT22;13829;48.990;8.346;2023-02-15T08:24:08;2.80;99.90
5055;DHT22;13829;48.990;8.346;2023-02-15T08:26:36;2.80;99.90
5055;DHT22;13829;48.990;8.346;2023-02-15T08:29:04;2.90;99.90
5055;DHT22;13829;48.990;8.346;2023-02-15T08:31:33;3.10;99.90
5055;DHT22;13829;48.990;8.346;2023-02-15T08:34:02;3.00;99.90
5055;DHT22;13829;48.990;8.346;2023-02-15T08:36:30;2.90;99.90
5055;DHT22;13829;48.990;8.346;2023-02-15T08:38:58;3.10;99.90
5055;DHT22;13829;48.990;8.346;2023-02-15T08:41:28;3.00;99.90
5055;DHT22;13829;48.990;8.346;2023-02-15T08:43:57;3.20;99.90
5055;DHT22;13829;48.990;8.346;2023-02-15T08:46:27;3.20;99.90
5055;DHT22;13829;48.990;8.346;2023-02-15T08:48:55;3.20;99.90
5055;DHT22;13829;48.990;8.346;2023-02-15T08:51:25;3.40;99.90
5055;DHT22;13829;48.990;8.346;2023-02-15T08:53:55;3.30;99.90
5055;DHT22;13829;48.990;8.346;2023-02-15T08:56:26;3.50;99.90
5055;DHT22;13829;48.990;8.346;2023-02-15T08:58:54;3.40;99.90
5055;DHT22;13829;48.990;8.346;2023-02-15T09:01:24;3.40;99.90
5055;DHT22;13829;48.990;8.346;2023-02-15T09:03:56;3.40;99.90
5055;DHT22;13829;48.990;8.346;2023-02-15T09:06:26;3.60;99.90
5055;DHT22;13829;48.990;8.346;2023-02-15T09:08:54;3.60;99.90
5055;DHT22;13829;48.990;8.346;2023-02-15T09:11:23;3.60;99.90
5055;DHT22;13829;48.990;8.346;2023-02-15T09:13:54;3.70;99.90
5055;DHT22;13829;48.990;8.346;2023-02-15T09:16:23;3.70;99.90
5055;DHT22;13829;48.990;8.346;2023-02-15T09:18:52;3.80;99.90
5055;DHT22;13829;48.990;8.346;2023-02-15T09:21:20;3.70;99.90
5055;DHT22;13829;48.990;8.346;2023-02-15T09:23:54;3.80;99.90
5055;DHT22;13829;48.990;8.346;2023-02-15T09:26:24;3.80;99.90
5055;DHT22;13829;48.990;8.346;2023-02-15T09:28:52;3.90;99.90
5055;DHT22;13829;48.990;8.346;2023-02-15T09:31:23;3.90;99.90
5055;DHT22;13829;48.990;8.346;2023-02-15T09:33:52;3.80;99.90
5055;DHT22;13829;48.990;8.346;2023-02-15T09:36:21;3.90;99.90
5055;DHT22;13829;48.990;8.346;2023-02-15T09:38:55;4.20;99.90
5055;DHT22;13829;48.990;8.346;2023-02-15T09:41:41;4.00;99.90
5055;DHT22;13829;48.990;8.346;2023-02-15T09:44:27;4.10;99.90
5055;DHT22;13829;48.990;8.346;2023-02-15T09:47:16;3.90;99.90
5055;DHT22;13829;48.990;8.346;2023-02-15T09:50:02;3.80;99.90
5055;DHT22;13829;48.990;8.346;2023-02-15T09:52:48;3.70;99.90
5055;DHT22;13829;48.990;8.346;2023-02-15T09:55:40;3.90;99.90
5055;DHT22;13829;48.990;8.346;2023-02-15T09:58:20;3.90;99.90
5055;DHT22;13829;48.990;8.346;2023-02-15T10:00:59;4.00;99.90
5055;DHT22;13829;48.990;8.346;2023-02-15T10:03:45;4.10;99.90
5055;DHT22;13829;48.990;8.346;2023-02-15T10:06:31;4.20;99.90
5055;DHT22;13829;48.990;8.346;2023-02-15T10:09:31;4.30;99.90
5055;DHT22;13829;48.990;8.346;2023-02-15T10:12:39;4.20;99.90
5055;DHT22;13829;48.990;8.346;2023-02-15T10:15:26;4.10;99.90
5055;DHT22;13829;48.990;8.346;2023-02-15T10:18:10;4.10;99.90
5055;DHT22;13829;48.990;8.346;2023-02-15T10:20:54;4.10;99.90
5055;DHT22;13829;48.990;8.346;2023-02-15T10:23:42;4.10;99.90
5055;DHT22;13829;48.990;8.346;2023-02-15T10:26:19;4.30;99.90
5055;DHT22;13829;48.990;8.346;2023-02-15T10:28:51;4.50;99.90
5055;DHT22;13829;48.990;8.346;2023-02-15T10:31:24;4.60;99.90
5055;DHT22;13829;48.990;8.346;2023-02-15T10:40:25;4.70;99.90
5055;DHT22;13829;48.990;8.346;2023-02-15T10:43:10;4.70;99.90
5055;DHT22;13829;48.990;8.346;2023-02-15T10:45:56;4.80;99.90
5055;DHT22;13829;48.990;8.346;2023-02-15T10:48:54;4.90;99.90
5055;DHT22;13829;48.990;8.346;2023-02-15T10:51:40;4.80;99.90
5055;DHT22;13829;48.990;8.346;2023-02-15T10:54:23;4.90;99.90
5055;DHT22;13829;48.990;8.346;2023-02-15T10:57:07;5.00;99.90
5055;DHT22;13829;48.990;8.346;2023-02-15T10:59:51;5.00;99.90
5055;DHT22;13829;48.990;8.346;2023-02-15T11:02:39;5.10;99.90
5055;DHT22;13829;48.990;8.346;2023-02-15T11:05:35;5.10;99.90
5055;DHT22;13829;48.990;8.346;2023-02-15T11:08:10;5.10;99.90
5055;DHT22;13829;48.990;8.346;2023-02-15T11:10:41;4.90;99.90
5055;DHT22;13829;48.990;8.346;2023-02-15T11:13:13;5.00;99.90
5055;DHT22;13829;48.990;8.346;2023-02-15T11:15:45;5.10;99.90
5055;DHT22;13829;48.990;8.346;2023-02-15T11:18:24;5.10;99.90
5055;DHT22;13829;48.990;8.346;2023-02-15T11:21:03;5.10;99.90
5055;DHT22;13829;48.990;8.346;2023-02-15T11:23:36;5.00;99.90
5055;DHT22;13829;48.990;8.346;2023-02-15T11:26:13;4.90;99.90
5055;DHT22;13829;48.990;8.346;2023-02-15T11:28:46;4.90;99.90
5055;DHT22;13829;48.990;8.346;2023-02-15T11:31:21;5.10;99.90
5055;DHT22;13829;48.990;8.346;2023-02-15T11:33:53;5.30;99.90
5055;DHT22;13829;48.990;8.346;2023-02-15T11:36:28;5.30;99.90
5055;DHT22;13829;48.990;8.346;2023-02-15T11:39:03;5.40;99.90
5055;DHT22;13829;48.990;8.346;2023-02-15T11:41:38;5.20;99.90
5055;DHT22;13829;48.990;8.346;2023-02-15T11:44:15;5.20;99.90
5055;DHT22;13829;48.990;8.346;2023-02-15T11:46:46;5.30;99.90
5055;DHT22;13829;48.990;8.346;2023-02-15T11:49:23;5.40;99.90
5055;DHT22;13829;48.990;8.346;2023-02-15T11:51:55;5.30;99.90
5055;DHT22;13829;48.990;8.346;2023-02-15T11:54:27;5.50;99.90
5055;DHT22;13829;48.990;8.346;2023-02-15T11:56:59;5.50;99.90
5055;DHT22;13829;48.990;8.346;2023-02-15T11:59:33;5.40;99.90
5055;DHT22;13829;48.990;8.346;2023-02-15T12:02:15;5.00;99.90
5055;DHT22;13829;48.990;8.346;2023-02-15T12:04:49;4.80;99.90
5055;DHT22;13829;48.990;8.346;2023-02-15T12:07:23;4.60;99.90
5055;DHT22;13829;48.990;8.346;2023-02-15T12:09:59;4.40;99.90
5055;DHT22;13829;48.990;8.346;2023-02-15T12:12:33;4.30;99.90
5055;DHT22;13829;48.990;8.346;2023-02-15T12:15:03;4.20;99.90
5055;DHT22;13829;48.990;8.346;2023-02-15T12:17:33;4.30;99.90
5055;DHT22;13829;48.990;8.346;2023-02-15T12:22:51;4.30;99.90
5055;DHT22;13829;48.990;8.346;2023-02-15T12:25:23;4.70;99.90
5055;DHT22;13829;48.990;8.346;2023-02-15T12:27:55;4.80;99.90
5055;DHT22;13829;48.990;8.346;2023-02-15T12:30:27;4.80;99.90
5055;DHT22;13829;48.990;8.346;2023-02-15T12:33:05;4.90;99.90
5055;DHT22;13829;48.990;8.346;2023-02-15T12:35:44;4.90;99.90
5055;DHT22;13829;48.990;8.346;2023-02-15T12:38:23;4.90;99.90
5055;DHT22;13829;48.990;8.346;2023-02-15T12:40:58;5.10;99.90
5055;DHT22;13829;48.990;8.346;2023-02-15T12:43:31;4.80;99.90
5055;DHT22;13829;48.990;8.346;2023-02-15T12:46:21;5.10;99.90
5055;DHT22;13829;48.990;8.346;2023-02-15T12:49:06;5.30;99.90
5055;DHT22;13829;48.990;8.346;2023-02-15T12:51:48;5.30;99.90
5055;DHT22;13829;48.990;8.346;2023-02-15T12:54:28;5.50;99.90
5055;DHT22;13829;48.990;8.346;2023-02-15T12:57:15;5.50;99.90
5055;DHT22;13829;48.990;8.346;2023-02-15T12:59:52;5.50;99.90
5055;DHT22;13829;48.990;8.346;2023-02-15T13:02:24;5.60;99.90
5055;DHT22;13829;48.990;8.346;2023-02-15T13:04:55;5.60;99.90
5055;DHT22;13829;48.990;8.346;2023-02-15T13:07:30;5.60;99.90
5055;DHT22;13829;48.990;8.346;2023-02-15T13:09:58;5.50;99.90
5055;DHT22;13829;48.990;8.346;2023-02-15T13:12:27;5.30;99.90
5055;DHT22;13829;48.990;8.346;2023-02-15T13:14:57;5.20;99.90
5055;DHT22;13829;48.990;8.346;2023-02-15T13:17:29;5.20;99.90
5055;DHT22;13829;48.990;8.346;2023-02-15T13:20:02;5.20;99.90
5055;DHT22;13829;48.990;8.346;2023-02-15T13:22:38;5.20;99.90
5055;DHT22;13829;48.990;8.346;2023-02-15T13:25:13;5.20;99.90
5055;DHT22;13829;48.990;8.346;2023-02-15T13:27:44;5.20;99.90
5055;DHT22;13829;48.990;8.346;2023-02-15T13:30:25;5.20;99.90
5055;DHT22;13829;48.990;8.346;2023-02-15T13:33:00;5.20;99.90
5055;DHT22;13829;48.990;8.346;2023-02-15T13:35:41;5.20;99.90
5055;DHT22;13829;48.990;8.346;2023-02-15T13:38:25;5.20;99.90
5055;DHT22;13829;48.990;8.346;2023-02-15T13:41:12;5.30;99.90
5055;DHT22;13829;48.990;8.346;2023-02-15T13:43:50;5.40;99.90
5055;DHT22;13829;48.990;8.346;2023-02-15T13:46:35;5.40;99.90
5055;DHT22;13829;48.990;8.346;2023-02-15T13:49:17;5.40;99.90
5055;DHT22;13829;48.990;8.346;2023-02-15T13:52:04;5.50;99.90
5055;DHT22;13829;48.990;8.346;2023-02-15T13:54:54;5.60;99.90
5055;DHT22;13829;48.990;8.346;2023-02-15T14:01:04;5.70;99.90
5055;DHT22;13829;48.990;8.346;2023-02-15T14:03:59;5.70;99.90
5055;DHT22;13829;48.990;8.346;2023-02-15T14:06:59;5.80;99.90
5055;DHT22;13829;48.990;8.346;2023-02-15T14:09:45;5.80;99.90
5055;DHT22;13829;48.990;8.346;2023-02-15T14:12:40;5.80;99.90
5055;DHT22;13829;48.990;8.346;2023-02-15T14:15:34;5.80;99.90
5055;DHT22;13829;48.990;8.346;2023-02-15T14:18:14;5.90;99.90
5055;DHT22;13829;48.990;8.346;2023-02-15T14:20:57;6.10;99.90
5055;DHT22;13829;48.990;8.346;2023-02-15T14:23:42;6.10;99.90
5055;DHT22;13829;48.990;8.346;2023-02-15T14:26:25;6.20;99.90
5055;DHT22;13829;48.990;8.346;2023-02-15T14:29:09;6.20;99.90
5055;DHT22;13829;48.990;8.346;2023-02-15T14:31:47;6.10;99.90
5055;DHT22;13829;48.990;8.346;2023-02-15T14:34:21;6.20;99.90
5055;DHT22;13829;48.990;8.346;2023-02-15T14:36:51;6.20;99.90
5055;DHT22;13829;48.990;8.346;2023-02-15T14:39:27;6.20;99.90
5055;DHT22;13829;48.990;8.346;2023-02-15T14:42:23;6.30;99.90
5055;DHT22;13829;48.990;8.346;2023-02-15T14:44:58;6.40;99.90
5055;DHT22;13829;48.990;8.346;2023-02-15T14:47:34;6.40;99.90
5055;DHT22;13829;48.990;8.346;2023-02-15T14:50:40;6.40;99.90
5055;DHT22;13829;48.990;8.346;2023-02-15T14:53:34;6.40;99.90
5055;DHT22;13829;48.990;8.346;2023-02-15T14:56:22;6.50;99.90
5055;DHT22;13829;48.990;8.346;2023-02-15T14:59:11;6.60;99.90
5055;DHT22;13829;48.990;8.346;2023-02-15T15:01:41;6.60;99.90
5055;DHT22;13829;48.990;8.346;2023-02-15T15:04:24;6.60;99.90
5055;DHT22;13829;48.990;8.346;2023-02-15T15:07:02;6.50;99.90
5055;DHT22;13829;48.990;8.346;2023-02-15T15:09:36;6.50;99.90
5055;DHT22;13829;48.990;8.346;2023-02-15T15:12:36;6.60;99.90
5055;DHT22;13829;48.990;8.346;2023-02-15T15:15:10;6.40;99.90
5055;DHT22;13829;48.990;8.346;2023-02-15T15:17:54;6.30;99.90
5055;DHT22;13829;48.990;8.346;2023-02-15T15:20:44;6.30;99.90
5055;DHT22;13829;48.990;8.346;2023-02-15T15:23:39;6.20;99.90
5055;DHT22;13829;48.990;8.346;2023-02-15T15:26:23;6.10;99.90
5055;DHT22;13829;48.990;8.346;2023-02-15T15:28:57;6.10;99.90
5055;DHT22;13829;48.990;8.346;2023-02-15T15:34:46;6.00;99.90
5055;DHT22;13829;48.990;8.346;2023-02-15T15:41:08;5.80;99.90
5055;DHT22;13829;48.990;8.346;2023-02-15T15:44:19;5.70;99.90
5055;DHT22;13829;48.990;8.346;2023-02-15T15:47:20;5.60;99.90
5055;DHT22;13829;48.990;8.346;2023-02-15T15:50:00;5.60;99.90
5055;DHT22;13829;48.990;8.346;2023-02-15T15:52:28;5.60;99.90
5055;DHT22;13829;48.990;8.346;2023-02-15T15:55:02;5.50;99.90
5055;DHT22;13829;48.990;8.346;2023-02-15T15:57:41;5.50;99.90
5055;DHT22;13829;48.990;8.346;2023-02-15T16:00:34;5.40;99.90
5055;DHT22;13829;48.990;8.346;2023-02-15T16:03:05;5.40;99.90
5055;DHT22;13829;48.990;8.346;2023-02-15T16:05:37;5.40;99.90
5055;DHT22;13829;48.990;8.346;2023-02-15T16:08:05;5.30;99.90
5055;DHT22;13829;48.990;8.346;2023-02-15T16:10:33;5.20;99.90
5055;DHT22;13829;48.990;8.346;2023-02-15T16:13:05;5.10;99.90
5055;DHT22;13829;48.990;8.346;2023-02-15T16:15:35;4.90;99.90
5055;DHT22;13829;48.990;8.346;2023-02-15T16:18:15;4.90;99.90
5055;DHT22;13829;48.990;8.346;2023-02-15T16:20:50;4.80;99.90
5055;DHT22;13829;48.990;8.346;2023-02-15T16:23:43;4.70;99.90
5055;DHT22;13829;48.990;8.346;2023-02-15T16:26:44;4.60;99.90
5055;DHT22;13829;48.990;8.346;2023-02-15T16:29:27;4.50;99.90
5055;DHT22;13829;48.990;8.346;2023-02-15T16:32:00;4.40;99.90
5055;DHT22;13829;48.990;8.346;2023-02-15T16:34:30;4.30;99.90
5055;DHT22;13829;48.990;8.346;2023-02-15T16:37:23;4.20;99.90
5055;DHT22;13829;48.990;8.346;2023-02-15T16:39:53;4.10;99.90
5055;DHT22;13829;48.990;8.346;2023-02-15T16:42:21;4.00;99.90
5055;DHT22;13829;48.990;8.346;2023-02-15T16:44:51;4.00;99.90
5055;DHT22;13829;48.990;8.346;2023-02-15T16:47:25;3.90;99.90
5055;DHT22;13829;48.990;8.346;2023-02-15T16:49:57;3.90;99.90
5055;DHT22;13829;48.990;8.346;2023-02-15T16:52:28;3.80;99.90
5055;DHT22;13829;48.990;8.346;2023-02-15T16:54:58;3.80;99.90
5055;DHT22;13829;48.990;8.346;2023-02-15T16:57:29;3.70;99.90
5055;DHT22;13829;48.990;8.346;2023-02-15T17:00:02;3.60;99.90
5055;DHT22;13829;48.990;8.346;2023-02-15T17:02:33;3.50;99.90
5055;DHT22;13829;48.990;8.346;2023-02-15T17:05:16;3.40;99.90
5055;DHT22;13829;48.990;8.346;2023-02-15T17:07:51;3.30;99.90
5055;DHT22;13829;48.990;8.346;2023-02-15T17:10:33;3.30;99.90